M I D A S
Marine Information and Data Acquisition System
Tripno 2150 of the Zeeleeuw from 2011-07-25 06:42:10 to 2011-07-25 13:06:22
Back to CruiseResearch ActivitiesStationsMapUnderway DataData graphs

EquipmentUnitsComment
TimeDGPSUTC
LatitudeDGPSDM.mWGS84
LongitudeDGPSDM.mWGS84
HeadingGyrodeg 
SOGDGPSknotsSpeed over ground
COGDGPSdegCourse over ground
DepthEcho soundermeters200 kHz
Missing or incorrect values are displayed as -999
Navigation data collected by the RV Zeeleeuw from 2011-07-25 06:31:22 to 2011-07-25 13:19:12
                                                                                    Next 1000 lines
Time Latitude Longitude Heading SOG COG Depth
2011-07-25 06:31:32 51°13.637 2°56.015 112.2 1 291 9.5
2011-07-25 06:31:37 51°13.638 2°56.012 112 1.5 295 9.5
2011-07-25 06:31:42 51°13.638 2°56.009 112.1 1.8 291 9.6
2011-07-25 06:31:47 51°13.64 2°56.004 112.4 2.1 293 9.8
2011-07-25 06:31:52 51°13.641 2°55.999 112.4 2.5 295 -999
2011-07-25 06:31:58 51°13.643 2°55.992 112.5 2.8 294 -999
2011-07-25 06:32:04 51°13.646 2°55.985 111.9 3.1 294 -999
2011-07-25 06:32:10 51°13.647 2°55.977 111.5 3.2 292 -999
2011-07-25 06:32:15 51°13.649 2°55.97 111 3.4 291 -999
2011-07-25 06:32:20 51°13.651 2°55.962 110.5 3.5 291 -999
2011-07-25 06:32:25 51°13.652 2°55.955 110.3 3.5 290 -999
2011-07-25 06:32:30 51°13.654 2°55.947 110.6 3.6 290 -999
2011-07-25 06:32:35 51°13.656 2°55.94 111.2 3.6 291 -999
2011-07-25 06:32:40 51°13.657 2°55.932 112.1 3.8 290 -999
2011-07-25 06:32:45 51°13.659 2°55.924 112.9 3.8 290 -999
2011-07-25 06:32:50 51°13.661 2°55.916 113.6 3.8 291 -999
2011-07-25 06:32:55 51°13.663 2°55.909 114.2 3.9 292 -999
2011-07-25 06:33:00 51°13.665 2°55.901 114.9 3.9 294 -999
2011-07-25 06:33:05 51°13.668 2°55.893 115.5 3.9 294 -999
2011-07-25 06:33:10 51°13.67 2°55.885 116.1 3.8 296 -999
2011-07-25 06:33:15 51°13.672 2°55.878 116.3 3.8 295 -999
2011-07-25 06:33:20 51°13.674 2°55.87 116.4 3.7 295 -999
2011-07-25 06:33:25 51°13.677 2°55.863 116.4 3.7 296 -999
2011-07-25 06:33:30 51°13.679 2°55.856 116.4 3.7 296 -999
2011-07-25 06:33:35 51°13.681 2°55.848 116.2 3.6 296 -999
2011-07-25 06:33:40 51°13.683 2°55.842 116.1 3.4 295 -999
2011-07-25 06:33:46 51°13.685 2°55.834 115.7 3.3 295 -999
2011-07-25 06:33:50 51°13.687 2°55.828 115.3 3.3 296 -999
2011-07-25 06:33:55 51°13.689 2°55.822 114.8 3.2 296 -999
2011-07-25 06:34:00 51°13.691 2°55.815 114.3 3.2 295 -999
2011-07-25 06:34:06 51°13.693 2°55.808 113.7 3.2 295 -999
2011-07-25 06:34:10 51°13.694 2°55.803 113.1 3.2 295 5
2011-07-25 06:34:15 51°13.696 2°55.796 112.5 3.2 294 -999
2011-07-25 06:34:20 51°13.698 2°55.79 111.6 3.2 293 -999
2011-07-25 06:34:25 51°13.7 2°55.783 110 3.2 292 -999
2011-07-25 06:34:30 51°13.701 2°55.777 108.3 3.1 290 -999
2011-07-25 06:34:35 51°13.703 2°55.77 106.3 3.2 289 -999
2011-07-25 06:34:40 51°13.704 2°55.763 104.1 3.2 287 -999
2011-07-25 06:34:45 51°13.705 2°55.757 101.9 3.2 285 -999
2011-07-25 06:34:50 51°13.706 2°55.75 99.1 3 282 -999
2011-07-25 06:34:56 51°13.707 2°55.742 97 2.9 280 -999
2011-07-25 06:35:00 51°13.707 2°55.738 95.6 2.5 279 -999
2011-07-25 06:35:05 51°13.708 2°55.733 94.1 2 278 -999
2011-07-25 06:35:10 51°13.708 2°55.73 91.6 1.3 278 -999
2011-07-25 06:35:16 51°13.708 2°55.728 88 0.9 280 -999
2011-07-25 06:35:20 51°13.709 2°55.727 84 0.5 290 -999
2011-07-25 06:35:26 51°13.709 2°55.727 80.1 0.2 322 -999
2011-07-25 06:35:30 51°13.709 2°55.727 76 0.4 28 14.4
2011-07-25 06:35:35 51°13.71 2°55.728 72.4 0.6 46 14.6
2011-07-25 06:35:40 51°13.71 2°55.73 67.6 0.9 49 14.3
2011-07-25 06:35:45 51°13.711 2°55.731 63.3 1.1 50 14.1
2011-07-25 06:35:50 51°13.713 2°55.734 57.8 1.3 47 -999
2011-07-25 06:35:55 51°13.714 2°55.735 51.2 1.2 40 -999
2011-07-25 06:36:00 51°13.715 2°55.737 46.2 0.9 39 4.8
2011-07-25 06:36:05 51°13.715 2°55.737 43.6 0.5 42 4.8
2011-07-25 06:36:10 51°13.715 2°55.737 39.8 0.2 10 -999
2011-07-25 06:36:15 51°13.715 2°55.737 36.3 0.2 192 -999
2011-07-25 06:36:20 51°13.715 2°55.737 33.4 0.4 212 14.1
2011-07-25 06:36:25 51°13.714 2°55.736 31.3 0.7 203 14.1
2011-07-25 06:36:30 51°13.712 2°55.735 29.2 0.9 207 14.1
2011-07-25 06:36:35 51°13.711 2°55.734 27.7 1.3 203 14.1
2011-07-25 06:36:40 51°13.708 2°55.733 26.5 1.6 202 -999
2011-07-25 06:36:44 51°13.706 2°55.732 24.8 1.9 202 7.1
2011-07-25 06:36:50 51°13.703 2°55.73 23.1 2 202 -999
2011-07-25 06:36:55 51°13.7 2°55.728 21.2 1.9 200 -999
2011-07-25 06:37:00 51°13.698 2°55.727 20.7 1.6 200 -999
2011-07-25 06:37:05 51°13.697 2°55.727 19.8 0.8 191 -999
2011-07-25 06:37:10 51°13.697 2°55.726 17.7 0.2 216 -999
2011-07-25 06:37:15 51°13.697 2°55.726 13.9 0.4 2 -999
2011-07-25 06:37:20 51°13.698 2°55.726 9.2 0.9 -999 -999
2011-07-25 06:37:25 51°13.7 2°55.726 3.1 1.4 354 -999
2011-07-25 06:37:31 51°13.704 2°55.725 356.1 1.9 350 -999
2011-07-25 06:37:35 51°13.706 2°55.724 348.9 2.5 343 -999
2011-07-25 06:37:40 51°13.71 2°55.721 342.8 3 339 -999
2011-07-25 06:37:44 51°13.714 2°55.719 339 3.6 338 -999
2011-07-25 06:37:50 51°13.72 2°55.714 337.3 4 336 13.9
2011-07-25 06:37:55 51°13.726 2°55.71 336.2 4.7 336 -999
2011-07-25 06:38:00 51°13.733 2°55.705 336.2 5.4 336 13.9
2011-07-25 06:38:05 51°13.741 2°55.7 336.4 6 335 13.9
2011-07-25 06:38:10 51°13.749 2°55.694 336.1 6.4 336 13.9
2011-07-25 06:38:15 51°13.758 2°55.687 336.1 7.1 334 13.7
2011-07-25 06:38:20 51°13.768 2°55.68 336 7.6 336 -999
2011-07-25 06:38:25 51°13.778 2°55.673 336.1 7.8 335 13.7
2011-07-25 06:38:29 51°13.786 2°55.666 336.1 8.2 335 13.9
2011-07-25 06:38:35 51°13.799 2°55.657 336.1 8.6 335 13.6
2011-07-25 06:38:40 51°13.81 2°55.648 336.1 8.9 334 13.6
2011-07-25 06:38:45 51°13.821 2°55.639 336 9.1 334 13.6
2011-07-25 06:38:49 51°13.831 2°55.632 336.2 9.4 335 13.6
2011-07-25 06:38:54 51°13.843 2°55.623 336.1 9.6 333 13.5
2011-07-25 06:38:59 51°13.855 2°55.613 335.3 9.8 335 13.6
2011-07-25 06:39:04 51°13.867 2°55.603 335.4 9.9 333 13.8
2011-07-25 06:39:09 51°13.879 2°55.593 335.2 10 333 13.6
2011-07-25 06:39:14 51°13.892 2°55.584 334.4 10.1 334 13.6
2011-07-25 06:39:19 51°13.905 2°55.574 335 10.2 335 13.8
2011-07-25 06:39:24 51°13.918 2°55.565 336.1 10.2 335 13.6
2011-07-25 06:39:29 51°13.93 2°55.555 336.3 10.2 336 13.6
2011-07-25 06:39:34 51°13.944 2°55.546 337 10.3 335 13.6
2011-07-25 06:39:39 51°13.957 2°55.536 337.1 10.3 336 13.6
2011-07-25 06:39:44 51°13.97 2°55.527 337.1 10.4 335 13.5
2011-07-25 06:39:49 51°13.983 2°55.517 336.9 10.4 335 13.6
2011-07-25 06:39:54 51°13.996 2°55.508 336.9 10.3 336 13.6
2011-07-25 06:40:00 51°14.012 2°55.497 337.5 10.4 336 13.6
2011-07-25 06:40:05 51°14.025 2°55.487 337.8 10.4 335 -999
2011-07-25 06:40:10 51°14.037 2°55.478 337.6 10.3 335 13.8
2011-07-25 06:40:15 51°14.051 2°55.469 337.7 10.4 337 13.5
2011-07-25 06:40:20 51°14.064 2°55.459 338 10.4 335 13.5
2011-07-25 06:40:25 51°14.077 2°55.449 337.4 10.4 336 -999
2011-07-25 06:40:29 51°14.088 2°55.442 337.6 10.5 336 13.5
2011-07-25 06:40:35 51°14.103 2°55.43 337.7 10.5 335 13.5
2011-07-25 06:40:40 51°14.117 2°55.421 337.2 10.5 336 13.4
2011-07-25 06:40:45 51°14.13 2°55.41 337 10.5 334 13.4
2011-07-25 06:40:49 51°14.141 2°55.403 336.8 10.5 336 -999
2011-07-25 06:40:54 51°14.154 2°55.393 336.6 10.6 334 13.4
2011-07-25 06:40:59 51°14.167 2°55.383 335.9 10.6 334 13.4
2011-07-25 06:41:06 51°14.186 2°55.368 335.5 10.7 334 13.4
2011-07-25 06:41:10 51°14.196 2°55.359 335.4 10.7 333 13.5
2011-07-25 06:41:14 51°14.207 2°55.351 335 10.8 333 13.5
2011-07-25 06:41:20 51°14.223 2°55.338 334.2 10.9 333 13.4
2011-07-25 06:41:25 51°14.236 2°55.327 334.2 10.9 334 13.4
2011-07-25 06:41:30 51°14.25 2°55.315 334.7 11 332 13.5
2011-07-25 06:41:35 51°14.263 2°55.304 333.8 11 332 13.5
2011-07-25 06:41:40 51°14.277 2°55.292 333.1 11 331 13.3
2011-07-25 06:41:45 51°14.29 2°55.279 332.5 11.2 330 13.6
2011-07-25 06:41:50 51°14.304 2°55.268 331.7 11.1 331 13.3
2011-07-25 06:41:55 51°14.317 2°55.255 332 11.2 329 -999
2011-07-25 06:42:00 51°14.33 2°55.242 331.2 11.2 329 13.3
2011-07-25 06:42:05 51°14.343 2°55.229 329.8 11.3 328 -999
2011-07-25 06:42:10 51°14.357 2°55.216 329.8 11.3 329 -999
2011-07-25 06:42:15 51°14.37 2°55.203 330.1 11.3 328 13.4
2011-07-25 06:42:20 51°14.383 2°55.19 330 11.3 328 -999
2011-07-25 06:42:25 51°14.396 2°55.176 329.6 11.4 329 -999
2011-07-25 06:42:30 51°14.41 2°55.164 330.2 11.3 329 -999
2011-07-25 06:42:35 51°14.423 2°55.151 330.4 11.3 329 -999
2011-07-25 06:42:40 51°14.437 2°55.138 331.1 11.4 329 -999
2011-07-25 06:42:45 51°14.451 2°55.125 330.8 11.4 329 -999
2011-07-25 06:42:51 51°14.467 2°55.109 330.8 11.4 329 -999
2011-07-25 06:42:55 51°14.478 2°55.099 330.8 11.4 329 13.6
2011-07-25 06:43:00 51°14.492 2°55.086 331.1 11.4 330 13.6
2011-07-25 06:43:05 51°14.505 2°55.072 330.7 11.6 328 13.5
2011-07-25 06:43:10 51°14.519 2°55.059 330 11.6 329 14.2
2011-07-25 06:43:15 51°14.534 2°55.046 330 11.8 330 -999
2011-07-25 06:43:20 51°14.548 2°55.033 330.8 12 331 13.6
2011-07-25 06:43:25 51°14.563 2°55.019 330.8 12.1 329 13.5
2011-07-25 06:43:30 51°14.578 2°55.005 328.9 12.5 331 13.7
2011-07-25 06:43:35 51°14.593 2°54.993 328.5 12.5 332 13.6
2011-07-25 06:43:40 51°14.608 2°54.98 328.3 12.5 333 -999
2011-07-25 06:43:45 51°14.624 2°54.967 329 12.5 332 -999
2011-07-25 06:43:50 51°14.639 2°54.953 327.7 12.6 329 13.9
2011-07-25 06:43:55 51°14.654 2°54.939 325.7 12.6 330 13.8
2011-07-25 06:44:00 51°14.669 2°54.925 325.5 12.5 329 13.5
2011-07-25 06:44:05 51°14.684 2°54.91 325.2 12.6 328 13.4
2011-07-25 06:44:10 51°14.698 2°54.896 323.7 12.4 328 13.7
2011-07-25 06:44:15 51°14.713 2°54.881 323.9 12.4 329 13.8
2011-07-25 06:44:19 51°14.724 2°54.869 323.8 12.3 327 13.4
2011-07-25 06:44:24 51°14.739 2°54.854 323 12.4 328 13.1
2011-07-25 06:44:29 51°14.754 2°54.839 323 12.5 327 13.5
2011-07-25 06:44:35 51°14.771 2°54.821 322.7 12.5 326 13.4
2011-07-25 06:44:39 51°14.782 2°54.808 321.9 12.5 326 13.3
2011-07-25 06:44:44 51°14.797 2°54.792 322.1 12.6 326 13
2011-07-25 06:44:49 51°14.811 2°54.776 321.8 12.7 324 12.9
2011-07-25 06:44:54 51°14.825 2°54.76 320.9 12.5 324 13
2011-07-25 06:44:59 51°14.839 2°54.743 320.3 12.5 322 13.3
2011-07-25 06:45:04 51°14.853 2°54.725 318.6 12.5 321 13.3
2011-07-25 06:45:08 51°14.863 2°54.711 317.1 12.5 320 13
2011-07-25 06:45:14 51°14.878 2°54.689 315.6 12.5 316 13.4
2011-07-25 06:45:19 51°14.891 2°54.669 313.6 12.5 315 12.9
2011-07-25 06:45:23 51°14.9 2°54.654 311.6 12.4 315 13.8
2011-07-25 06:45:28 51°14.913 2°54.635 310.7 12.3 315 13.3
2011-07-25 06:45:33 51°14.925 2°54.616 310 12.4 318 13.5
2011-07-25 06:45:38 51°14.938 2°54.599 312.2 12.4 322 13.8
2011-07-25 06:45:43 51°14.952 2°54.582 316.2 12.5 323 13.5
2011-07-25 06:45:48 51°14.966 2°54.566 318.5 12.6 323 13.8
2011-07-25 06:45:53 51°14.98 2°54.549 318.8 12.7 323 13.9
2011-07-25 06:45:58 51°14.994 2°54.532 318.7 12.7 322 14
2011-07-25 06:46:03 51°15.008 2°54.515 318.5 12.5 322 14
2011-07-25 06:46:07 51°15.018 2°54.501 318.1 12.5 321 13.3
2011-07-25 06:46:12 51°15.032 2°54.484 317.4 12.5 321 13.7
2011-07-25 06:46:17 51°15.045 2°54.466 316.9 12.6 320 13.8
2011-07-25 06:46:22 51°15.059 2°54.448 316.2 12.6 320 13.9
2011-07-25 06:46:27 51°15.072 2°54.43 315.8 12.7 319 13.8
2011-07-25 06:46:32 51°15.085 2°54.412 315.1 12.6 319 13.8
2011-07-25 06:46:37 51°15.098 2°54.394 315.1 12.5 319 13.8
2011-07-25 06:46:42 51°15.111 2°54.375 315 12.5 319 13.8
2011-07-25 06:46:47 51°15.124 2°54.357 314.4 12.5 319 13.6
2011-07-25 06:46:51 51°15.135 2°54.342 313.9 12.6 318 14
2011-07-25 06:46:56 51°15.148 2°54.324 314 12.6 319 14
2011-07-25 06:47:02 51°15.164 2°54.302 314.4 12.6 319 13.5
2011-07-25 06:47:07 51°15.177 2°54.283 314.4 12.7 319 14.1
2011-07-25 06:47:11 51°15.188 2°54.269 315.1 12.7 320 14.2
2011-07-25 06:47:16 51°15.201 2°54.251 315.8 12.7 320 14.2
2011-07-25 06:47:22 51°15.217 2°54.23 316.5 12.4 320 14.1
2011-07-25 06:47:27 51°15.23 2°54.213 316.9 12.5 321 15
2011-07-25 06:47:31 51°15.241 2°54.2 317.9 12.5 322 14.5
2011-07-25 06:47:36 51°15.255 2°54.183 318.6 12.5 324 14.5
2011-07-25 06:47:41 51°15.269 2°54.167 319.6 12.4 324 14.6
2011-07-25 06:47:47 51°15.286 2°54.148 320.6 12.5 325 14.9
2011-07-25 06:47:51 51°15.298 2°54.135 321.7 12.6 326 14.2
2011-07-25 06:47:56 51°15.312 2°54.12 323 12.6 327 14.1
2011-07-25 06:48:01 51°15.327 2°54.105 323.5 12.5 328 14.1
2011-07-25 06:48:07 51°15.345 2°54.088 324.2 12.5 329 13.8
2011-07-25 06:48:11 51°15.357 2°54.077 324.6 12.5 328 13.9
2011-07-25 06:48:16 51°15.372 2°54.062 324.5 12.5 329 14
2011-07-25 06:48:21 51°15.386 2°54.047 323.5 12.5 327 14.2
2011-07-25 06:48:27 51°15.404 2°54.029 322.7 12.6 327 14.4
2011-07-25 06:48:31 51°15.415 2°54.016 321.9 12.7 325 14.2
2011-07-25 06:48:36 51°15.429 2°54 321.2 12.7 325 14.3
2011-07-25 06:48:42 51°15.446 2°53.98 320.2 12.5 323 14
2011-07-25 06:48:47 51°15.46 2°53.963 318.7 12.5 322 14.1
2011-07-25 06:48:51 51°15.471 2°53.949 318.1 12.4 323 14
2011-07-25 06:48:56 51°15.485 2°53.933 318.6 12.5 323 14.3
2011-07-25 06:49:02 51°15.501 2°53.913 318.9 12.5 323 13.7
2011-07-25 06:49:07 51°15.515 2°53.896 318.9 12.5 323 13.9
2011-07-25 06:49:11 51°15.527 2°53.883 319.1 12.6 324 14.5
2011-07-25 06:49:16 51°15.541 2°53.867 319.8 12.6 324 14.6
2011-07-25 06:49:22 51°15.558 2°53.848 320.6 12.6 324 14.2
2011-07-25 06:49:27 51°15.572 2°53.832 320.8 12.5 325 13.9
2011-07-25 06:49:31 51°15.584 2°53.819 321 12.6 325 14.2
2011-07-25 06:49:36 51°15.598 2°53.804 321.3 12.6 326 13.6
2011-07-25 06:49:42 51°15.615 2°53.785 321.6 12.4 326 13.4
2011-07-25 06:49:47 51°15.63 2°53.77 321.8 12.5 326 14
2011-07-25 06:49:51 51°15.641 2°53.757 322.3 12.3 325 13.4
2011-07-25 06:49:56 51°15.655 2°53.741 321.7 12.3 325 13.3
2011-07-25 06:50:02 51°15.671 2°53.721 319 12.3 320 13.8
2011-07-25 06:50:07 51°15.683 2°53.703 315.7 12.3 319 13.8
2011-07-25 06:50:11 51°15.694 2°53.688 314.4 12.2 319 13.2
2011-07-25 06:50:16 51°15.707 2°53.67 314.5 12.2 319 13.3
2011-07-25 06:50:21 51°15.719 2°53.651 313.5 12.3 316 14.4
2011-07-25 06:50:27 51°15.733 2°53.629 312 12.3 315 14.7
2011-07-25 06:50:31 51°15.743 2°53.613 310.7 12.4 314 14.7
2011-07-25 06:50:36 51°15.755 2°53.593 309.6 12.4 315 14.2
2011-07-25 06:50:42 51°15.77 2°53.57 309.9 12.4 315 14.3
2011-07-25 06:50:47 51°15.783 2°53.552 312.2 12.4 319 14
2011-07-25 06:50:51 51°15.793 2°53.538 313.8 12.3 319 14.2
2011-07-25 06:50:56 51°15.806 2°53.52 315.1 12.4 321 15.1
2011-07-25 06:51:02 51°15.823 2°53.501 318.1 12.5 325 15.5
2011-07-25 06:51:07 51°15.837 2°53.486 321.2 12.4 327 14.8
2011-07-25 06:51:11 51°15.849 2°53.475 323.5 12.5 329 14.4
2011-07-25 06:51:17 51°15.868 2°53.459 325.1 12.6 331 14.4
2011-07-25 06:51:22 51°15.883 2°53.445 326.7 12.6 332 14.9
2011-07-25 06:51:27 51°15.899 2°53.433 328.2 12.7 333 14.1
2011-07-25 06:51:31 51°15.912 2°53.423 330.1 12.7 335 13.6
2011-07-25 06:51:36 51°15.928 2°53.411 331.2 12.6 336 13.8
2011-07-25 06:51:42 51°15.947 2°53.398 332.2 12.6 336 14.2
2011-07-25 06:51:47 51°15.963 2°53.387 332.5 12.8 337 14.2
2011-07-25 06:51:51 51°15.977 2°53.378 333.2 12.8 337 14
2011-07-25 06:51:56 51°15.993 2°53.367 333.3 12.8 337 13.6
2011-07-25 06:52:02 51°16.013 2°53.354 333.2 12.7 337 14
2011-07-25 06:52:07 51°16.029 2°53.343 333 12.7 337 14.5
2011-07-25 06:52:11 51°16.042 2°53.334 332.5 12.7 336 14.9
2011-07-25 06:52:17 51°16.061 2°53.32 332.2 12.7 336 14.6
2011-07-25 06:52:21 51°16.074 2°53.311 332.3 12.8 336 14.6
2011-07-25 06:52:26 51°16.09 2°53.3 332.5 12.8 336 14.5
2011-07-25 06:52:31 51°16.106 2°53.288 332.4 12.8 336 13.7
2011-07-25 06:52:37 51°16.125 2°53.274 332 12.7 336 14.1
2011-07-25 06:52:42 51°16.142 2°53.263 332 12.6 335 13.9
2011-07-25 06:52:47 51°16.157 2°53.249 329.6 12.5 332 13.6
2011-07-25 06:52:52 51°16.173 2°53.236 327.8 12.6 332 13.6
2011-07-25 06:52:56 51°16.185 2°53.225 326.6 12.6 330 14
2011-07-25 06:53:02 51°16.203 2°53.208 325.6 12.5 329 14.4
2011-07-25 06:53:06 51°16.215 2°53.196 324.7 12.5 329 14.1
2011-07-25 06:53:12 51°16.233 2°53.178 324.6 12.7 329 14.2
2011-07-25 06:53:16 51°16.245 2°53.167 324.5 12.7 329 13.9
2011-07-25 06:53:21 51°16.26 2°53.152 324.4 12.8 329 13.8
2011-07-25 06:53:26 51°16.275 2°53.137 324.4 12.8 329 14.2
2011-07-25 06:53:31 51°16.29 2°53.123 324.4 12.8 329 14.5
2011-07-25 06:53:36 51°16.305 2°53.108 324.3 12.8 328 14.8
2011-07-25 06:53:42 51°16.323 2°53.09 324.4 12.6 329 14.1
2011-07-25 06:53:47 51°16.338 2°53.076 324.5 12.4 329 14.5
2011-07-25 06:53:52 51°16.352 2°53.061 324.4 12.4 327 15.1
2011-07-25 06:53:57 51°16.367 2°53.047 323.9 12.4 328 14.4
2011-07-25 06:54:02 51°16.382 2°53.032 323.6 12.5 328 14.6
2011-07-25 06:54:07 51°16.396 2°53.018 323.3 12.6 328 14.5
2011-07-25 06:54:12 51°16.411 2°53.002 322.5 12.5 326 14.2
2011-07-25 06:54:17 51°16.425 2°52.987 321.5 12.6 326 14.2
2011-07-25 06:54:22 51°16.44 2°52.971 321.4 12.4 325 14.1
2011-07-25 06:54:27 51°16.454 2°52.955 321 12.4 326 14.5
2011-07-25 06:54:32 51°16.469 2°52.94 321.5 12.4 326 14.3
2011-07-25 06:54:37 51°16.483 2°52.925 321.9 12.5 327 14.4
2011-07-25 06:54:41 51°16.495 2°52.913 322.9 12.6 328 14.2
2011-07-25 06:54:47 51°16.513 2°52.895 323.1 12.8 329 14.3
2011-07-25 06:54:52 51°16.529 2°52.882 324.8 12.8 331 14.1
2011-07-25 06:54:57 51°16.545 2°52.869 327.2 12.8 333 14.2
2011-07-25 06:55:01 51°16.558 2°52.859 328.8 12.8 334 13.8
2011-07-25 06:55:06 51°16.574 2°52.847 329.8 12.6 335 13.7
2011-07-25 06:55:12 51°16.593 2°52.833 330.9 12.7 336 14.2
2011-07-25 06:55:17 51°16.609 2°52.822 331.9 12.8 337 13.8
2011-07-25 06:55:21 51°16.622 2°52.813 332.8 12.8 337 13.6
2011-07-25 06:55:26 51°16.639 2°52.802 333.4 12.9 338 13.7
2011-07-25 06:55:32 51°16.659 2°52.79 334.7 13 339 13.7
2011-07-25 06:55:37 51°16.676 2°52.78 335.1 13 339 14
2011-07-25 06:55:41 51°16.689 2°52.772 335.3 13 338 13.1
2011-07-25 06:55:46 51°16.705 2°52.761 335.3 12.8 337 12.8
2011-07-25 06:55:52 51°16.725 2°52.748 335.1 12.8 337 12.9
2011-07-25 06:55:57 51°16.741 2°52.736 333 12.7 334 12.8
2011-07-25 06:56:01 51°16.753 2°52.727 331.4 12.6 335 12.5
2011-07-25 06:56:07 51°16.772 2°52.711 330.8 12.6 333 12.1
2011-07-25 06:56:12 51°16.788 2°52.698 329.6 12.6 333 12.4
2011-07-25 06:56:17 51°16.804 2°52.686 329.2 12.6 333 11.8
2011-07-25 06:56:21 51°16.816 2°52.675 329.2 12.7 333 12.2
2011-07-25 06:56:27 51°16.835 2°52.659 328.7 12.8 332 12
2011-07-25 06:56:32 51°16.851 2°52.646 328.4 12.7 332 12
2011-07-25 06:56:37 51°16.866 2°52.632 327.6 12.7 331 12.2
2011-07-25 06:56:41 51°16.879 2°52.622 327.3 12.7 331 12
2011-07-25 06:56:47 51°16.897 2°52.604 326.5 12.8 329 12.4
2011-07-25 06:56:52 51°16.912 2°52.589 325.7 12.8 329 12.2
2011-07-25 06:56:57 51°16.927 2°52.575 325.2 12.7 329 12.4
2011-07-25 06:57:01 51°16.939 2°52.563 324.6 12.7 329 12.5
2011-07-25 06:57:06 51°16.955 2°52.549 325.2 12.8 331 12.5
2011-07-25 06:57:12 51°16.974 2°52.533 327.1 12.9 333 13
2011-07-25 06:57:17 51°16.989 2°52.521 328.7 12.8 334 13
2011-07-25 06:57:21 51°17.002 2°52.512 330.4 12.6 335 12
2011-07-25 06:57:26 51°17.019 2°52.501 331.3 12.7 337 12.1
2011-07-25 06:57:32 51°17.038 2°52.488 332.6 12.8 338 12
2011-07-25 06:57:37 51°17.055 2°52.478 333.5 12.8 338 11.7
2011-07-25 06:57:41 51°17.068 2°52.47 334.2 12.9 339 11.9
2011-07-25 06:57:46 51°17.085 2°52.46 334.9 13 339 12.4
2011-07-25 06:57:52 51°17.106 2°52.449 335.9 12.9 340 12.1
2011-07-25 06:57:57 51°17.122 2°52.438 336.1 12.9 341 12.3
2011-07-25 06:58:01 51°17.135 2°52.431 336.8 13 341 12.4
2011-07-25 06:58:06 51°17.152 2°52.421 337 13 341 12.6
2011-07-25 06:58:12 51°17.172 2°52.409 336.9 12.9 340 12.6
2011-07-25 06:58:17 51°17.189 2°52.399 335.7 12.9 338 12.9
2011-07-25 06:58:21 51°17.202 2°52.39 335 12.8 338 13.3
2011-07-25 06:58:26 51°17.218 2°52.38 334.4 12.7 337 13.3
2011-07-25 06:58:32 51°17.237 2°52.367 334.1 12.7 338 13.4
2011-07-25 06:58:36 51°17.25 2°52.359 334 12.6 338 13.2
2011-07-25 06:58:41 51°17.267 2°52.349 334.5 12.6 340 12.9
2011-07-25 06:58:46 51°17.283 2°52.339 335.1 12.7 339 13.2
2011-07-25 06:58:52 51°17.303 2°52.329 336.7 12.8 342 13
2011-07-25 06:58:56 51°17.317 2°52.322 338.6 12.9 343 12.9
2011-07-25 06:59:01 51°17.334 2°52.314 340.4 12.9 345 12.7
2011-07-25 06:59:06 51°17.352 2°52.308 341.9 12.9 346 12.9
2011-07-25 06:59:11 51°17.369 2°52.301 342.7 12.9 347 13.2
2011-07-25 06:59:16 51°17.387 2°52.295 344.2 13 348 13.1
2011-07-25 06:59:21 51°17.405 2°52.289 344.9 13.1 348 12.7
2011-07-25 06:59:26 51°17.422 2°52.284 345.8 13 349 12.6
2011-07-25 06:59:31 51°17.44 2°52.278 345.5 13 347 13.2
2011-07-25 06:59:36 51°17.458 2°52.272 344.8 13.1 348 13.4
2011-07-25 06:59:41 51°17.475 2°52.265 344.5 13.1 347 12.9
2011-07-25 06:59:46 51°17.493 2°52.259 344.1 13.1 348 12.9
2011-07-25 06:59:51 51°17.51 2°52.253 343.7 13 347 13.3
2011-07-25 06:59:56 51°17.528 2°52.247 343.8 13.1 348 13.3
2011-07-25 07:00:01 51°17.546 2°52.24 343.9 13.2 346 13.1
2011-07-25 07:00:06 51°17.563 2°52.234 344.4 13.1 348 13.1
2011-07-25 07:00:11 51°17.581 2°52.228 344.9 13.1 349 13.2
2011-07-25 07:00:16 51°17.599 2°52.223 345.9 13.1 351 13.8
2011-07-25 07:00:21 51°17.617 2°52.219 347.1 13.1 351 14
2011-07-25 07:00:26 51°17.635 2°52.214 347.6 13.1 351 13.3
2011-07-25 07:00:31 51°17.653 2°52.21 348.5 13.2 351 13.1
2011-07-25 07:00:37 51°17.675 2°52.204 348.1 13.1 351 12.9
2011-07-25 07:00:41 51°17.689 2°52.201 348 13.2 352 13.3
2011-07-25 07:00:46 51°17.707 2°52.196 348 13.2 350 13.6
2011-07-25 07:00:51 51°17.725 2°52.191 347.4 13.1 350 13.9
2011-07-25 07:00:56 51°17.742 2°52.186 347.2 13.1 350 14.3
2011-07-25 07:01:01 51°17.76 2°52.181 346.6 13 349 13.5
2011-07-25 07:01:05 51°17.775 2°52.176 346.2 13 348 13.6
2011-07-25 07:01:11 51°17.796 2°52.169 345.6 13 348 13.9
2011-07-25 07:01:16 51°17.813 2°52.163 345.1 12.9 348 13.3
2011-07-25 07:01:21 51°17.831 2°52.156 344.1 13 346 13
2011-07-25 07:01:26 51°17.848 2°52.149 343.7 12.9 347 13.2
2011-07-25 07:01:31 51°17.866 2°52.142 342.9 12.8 346 12.9
2011-07-25 07:01:36 51°17.883 2°52.136 343 12.9 346 13.4
2011-07-25 07:01:42 51°17.904 2°52.127 342.8 12.9 345 13.7
2011-07-25 07:01:47 51°17.921 2°52.12 342.3 12.9 346 13.6
2011-07-25 07:01:52 51°17.938 2°52.113 342.8 12.8 346 13.9
2011-07-25 07:01:57 51°17.956 2°52.107 343.4 12.9 347 13.9
2011-07-25 07:02:02 51°17.974 2°52.1 343.9 13.1 347 13.3
2011-07-25 07:02:06 51°17.988 2°52.095 344.1 13.1 348 13.3
2011-07-25 07:02:12 51°18.009 2°52.088 344.5 13.1 347 13.3
2011-07-25 07:02:17 51°18.026 2°52.082 344.5 13 348 13.6
2011-07-25 07:02:22 51°18.044 2°52.076 344.8 13.1 348 13.1
2011-07-25 07:02:26 51°18.058 2°52.072 345.1 13.2 350 12.9
2011-07-25 07:02:32 51°18.079 2°52.066 345.7 12.8 351 13.1
2011-07-25 07:02:37 51°18.097 2°52.063 348 12.7 354 13.3
2011-07-25 07:02:42 51°18.114 2°52.06 350.5 12.8 354 14
2011-07-25 07:02:47 51°18.132 2°52.059 352.5 12.9 356 13.8
2011-07-25 07:02:52 51°18.151 2°52.058 353.7 13 358 13.8
2011-07-25 07:02:57 51°18.169 2°52.056 355 13.1 358 13.4
2011-07-25 07:03:02 51°18.187 2°52.057 356.3 13.1 -999 13.5
2011-07-25 07:03:07 51°18.205 2°52.057 357.5 13.3 -999 13.9
2011-07-25 07:03:12 51°18.224 2°52.056 357.6 13.3 359 13.3
2011-07-25 07:03:17 51°18.242 2°52.058 357.9 13.2 2 13.8
2011-07-25 07:03:22 51°18.26 2°52.057 357.8 13.3 359 13.3
2011-07-25 07:03:27 51°18.278 2°52.057 357.1 13.2 -999 13.3
2011-07-25 07:03:32 51°18.296 2°52.057 357.2 13.1 -999 13.8
2011-07-25 07:03:37 51°18.315 2°52.056 356.6 13.1 359 14
2011-07-25 07:03:42 51°18.333 2°52.055 356.3 13.1 359 14.2
2011-07-25 07:03:46 51°18.348 2°52.055 356.4 13.2 359 13.8
2011-07-25 07:03:52 51°18.37 2°52.055 356.4 13.2 359 13.5
2011-07-25 07:03:57 51°18.388 2°52.054 356.1 13.2 358 13.7
2011-07-25 07:04:02 51°18.406 2°52.053 355.7 13.2 359 14.1
2011-07-25 07:04:07 51°18.425 2°52.052 356.2 13.3 358 13.5
2011-07-25 07:04:12 51°18.442 2°52.051 355.3 13.1 357 13.4
2011-07-25 07:04:17 51°18.46 2°52.05 354.7 13.1 359 14
2011-07-25 07:04:22 51°18.478 2°52.048 354.6 13.1 356 14.2
2011-07-25 07:04:26 51°18.493 2°52.048 354.3 13.1 359 13
2011-07-25 07:04:32 51°18.513 2°52.047 354.7 12.8 358 13.5
2011-07-25 07:04:37 51°18.531 2°52.046 355.7 12.7 359 13.7
2011-07-25 07:04:42 51°18.549 2°52.046 355.7 12.8 358 14.3
2011-07-25 07:04:46 51°18.563 2°52.045 356 12.9 359 14.2
2011-07-25 07:04:52 51°18.585 2°52.044 355.7 13 358 13.8
2011-07-25 07:04:57 51°18.602 2°52.044 355.7 12.7 359 14.1
2011-07-25 07:05:02 51°18.62 2°52.043 355.4 12.8 359 14.7
2011-07-25 07:05:06 51°18.635 2°52.043 355.8 12.7 359 15.3
2011-07-25 07:05:12 51°18.656 2°52.041 355.7 12.6 358 15.6
2011-07-25 07:05:17 51°18.674 2°52.041 355.7 12.9 359 15.4
2011-07-25 07:05:22 51°18.692 2°52.041 355.7 12.9 359 15
2011-07-25 07:05:26 51°18.706 2°52.04 355.7 12.9 358 15.1
2011-07-25 07:05:32 51°18.727 2°52.039 355.6 13 358 14.8
2011-07-25 07:05:37 51°18.745 2°52.037 355.2 13.1 357 14.4
2011-07-25 07:05:42 51°18.763 2°52.036 354.3 13.1 357 14.5
2011-07-25 07:05:47 51°18.781 2°52.034 353.7 12.8 356 15
2011-07-25 07:05:52 51°18.798 2°52.032 353 12.6 356 15.9
2011-07-25 07:05:57 51°18.816 2°52.029 352.2 12.8 355 16.1
2011-07-25 07:06:02 51°18.834 2°52.027 352.1 12.8 355 16.2
2011-07-25 07:06:06 51°18.849 2°52.027 353.8 13 359 16
2011-07-25 07:06:12 51°18.87 2°52.026 355.7 13.1 359 15.8
2011-07-25 07:06:17 51°18.888 2°52.026 356.1 13 -999 15.9
2011-07-25 07:06:22 51°18.907 2°52.027 357.3 13.2 1 15.8
2011-07-25 07:06:26 51°18.922 2°52.027 358 13.2 1 15.9
2011-07-25 07:06:32 51°18.944 2°52.029 358.7 13.3 2 16.2
2011-07-25 07:06:37 51°18.962 2°52.03 359.3 13.4 3 16.3
2011-07-25 07:06:42 51°18.981 2°52.032 0.4 13.5 4 16.3
2011-07-25 07:06:47 51°18.999 2°52.033 0.8 13.4 3 16.4
2011-07-25 07:06:52 51°19.018 2°52.036 1.5 13.5 5 16.1
2011-07-25 07:06:57 51°19.036 2°52.038 1.9 13.4 4 16.5
2011-07-25 07:07:02 51°19.055 2°52.041 2.2 13.4 5 16.7
2011-07-25 07:07:06 51°19.07 2°52.043 2.3 13.3 5 16.9
2011-07-25 07:07:12 51°19.092 2°52.045 2.2 13.4 4 16.6
2011-07-25 07:07:17 51°19.111 2°52.047 1.8 13.5 4 16.4
2011-07-25 07:07:22 51°19.13 2°52.049 0.8 13.6 3 16.1
2011-07-25 07:07:26 51°19.144 2°52.05 0.4 13.5 3 16.2
2011-07-25 07:07:32 51°19.167 2°52.051 359.6 13.4 3 17
2011-07-25 07:07:37 51°19.185 2°52.052 359.4 13.5 2 17.2
2011-07-25 07:07:42 51°19.204 2°52.053 359.3 13.4 2 17.4
2011-07-25 07:07:46 51°19.219 2°52.053 358.4 13.5 1 16.8
2011-07-25 07:07:52 51°19.241 2°52.054 358.1 13.3 1 17.2
2011-07-25 07:07:57 51°19.26 2°52.054 357.7 13.5 -999 18
2011-07-25 07:08:02 51°19.278 2°52.055 357.4 13.3 -999 17.7
2011-07-25 07:08:06 51°19.293 2°52.055 357.3 13.3 -999 18.1
2011-07-25 07:08:12 51°19.315 2°52.055 356.7 13.3 -999 17.2
2011-07-25 07:08:17 51°19.333 2°52.055 357.2 13.1 -999 17.3
2011-07-25 07:08:22 51°19.351 2°52.055 357.1 13 -999 18.3
2011-07-25 07:08:26 51°19.365 2°52.056 357.4 13.1 1 17.9
2011-07-25 07:08:32 51°19.387 2°52.056 357.2 13.2 -999 17.4
2011-07-25 07:08:37 51°19.406 2°52.057 357.9 13.4 2 17.6
2011-07-25 07:08:42 51°19.424 2°52.058 358.7 13.3 2 18
2011-07-25 07:08:46 51°19.439 2°52.059 359.1 13.3 3 17.8
2011-07-25 07:08:52 51°19.461 2°52.062 0.8 13.5 4 17.7
2011-07-25 07:08:57 51°19.48 2°52.063 0.1 13.5 3 18.1
2011-07-25 07:09:02 51°19.499 2°52.065 0.7 13.4 5 18.3
2011-07-25 07:09:07 51°19.517 2°52.067 1 13.5 3 17.9
2011-07-25 07:09:12 51°19.536 2°52.069 1.2 13.6 5 17.7
2011-07-25 07:09:17 51°19.555 2°52.071 1.8 13.5 4 17.6
2011-07-25 07:09:22 51°19.573 2°52.074 1.5 13.4 4 17.9
2011-07-25 07:09:26 51°19.588 2°52.075 1.7 13.4 4 17.6
2011-07-25 07:09:32 51°19.61 2°52.077 0.9 13.4 3 18
2011-07-25 07:09:37 51°19.629 2°52.078 0.6 13.3 3 18.1
2011-07-25 07:09:42 51°19.647 2°52.079 0.1 13.3 2 18.1
2011-07-25 07:09:46 51°19.662 2°52.08 359.6 13.3 3 18.2
2011-07-25 07:09:52 51°19.684 2°52.081 359.7 13.2 1 18.8
2011-07-25 07:09:57 51°19.703 2°52.083 358.9 13.3 2 18.7
2011-07-25 07:10:02 51°19.721 2°52.083 358.9 13.3 1 18.3
2011-07-25 07:10:06 51°19.736 2°52.083 358.1 13 1 18.6
2011-07-25 07:10:12 51°19.757 2°52.084 358.6 12.9 1 18.7
2011-07-25 07:10:17 51°19.776 2°52.084 358.4 13.1 -999 18.9
2011-07-25 07:10:22 51°19.794 2°52.085 357.9 13.2 2 18.5
2011-07-25 07:10:26 51°19.809 2°52.085 358 13.2 1 18.6
2011-07-25 07:10:32 51°19.831 2°52.086 358.2 13.2 1 18.8
2011-07-25 07:10:37 51°19.849 2°52.086 358.6 13.4 1 18.5
2011-07-25 07:10:42 51°19.868 2°52.087 358.4 13.6 1 18.2
2011-07-25 07:10:46 51°19.883 2°52.087 358.3 13.5 1 18.3
2011-07-25 07:10:52 51°19.905 2°52.088 358.4 13.4 1 18.6
2011-07-25 07:10:57 51°19.924 2°52.089 358.1 13.4 1 19
2011-07-25 07:11:02 51°19.943 2°52.089 358.5 13.4 2 18.5
2011-07-25 07:11:06 51°19.957 2°52.09 358.6 13.3 1 18.6
2011-07-25 07:11:12 51°19.979 2°52.091 358.2 13.2 2 18.5
2011-07-25 07:11:17 51°19.997 2°52.091 358.6 13.2 1 17.9
2011-07-25 07:11:22 51°20.016 2°52.092 358.6 13.3 2 17.8
2011-07-25 07:11:26 51°20.031 2°52.092 358.6 13.3 1 18.4
2011-07-25 07:11:32 51°20.053 2°52.093 358.6 13.3 1 18.2
2011-07-25 07:11:37 51°20.072 2°52.094 358.7 13.5 1 17.2
2011-07-25 07:11:42 51°20.09 2°52.094 358.7 13.4 1 16.8
2011-07-25 07:11:46 51°20.105 2°52.095 359 13.4 2 17
2011-07-25 07:11:52 51°20.127 2°52.096 359.1 13.3 2 17.3
2011-07-25 07:11:57 51°20.146 2°52.098 359.7 13.4 2 18
2011-07-25 07:12:02 51°20.165 2°52.099 359.9 13.3 2 18
2011-07-25 07:12:06 51°20.179 2°52.1 359.9 13.3 2 17.8
2011-07-25 07:12:12 51°20.202 2°52.101 0.1 13.4 3 17
2011-07-25 07:12:17 51°20.22 2°52.103 0.6 13.4 2 17
2011-07-25 07:12:22 51°20.238 2°52.104 0.3 13.4 3 16.7
2011-07-25 07:12:26 51°20.253 2°52.105 0.1 13.4 2 16.2
2011-07-25 07:12:32 51°20.275 2°52.107 0.3 13.2 3 16.3
2011-07-25 07:12:37 51°20.293 2°52.109 0.6 13.3 4 16.5
2011-07-25 07:12:42 51°20.311 2°52.111 1.1 13.2 3 16.5
2011-07-25 07:12:46 51°20.326 2°52.112 1 13.2 3 16.9
2011-07-25 07:12:52 51°20.348 2°52.114 1 13.3 3 16.8
2011-07-25 07:12:57 51°20.366 2°52.115 0.8 13.2 2 16.3
2011-07-25 07:13:02 51°20.385 2°52.115 0.1 13.1 1 16.6
2011-07-25 07:13:06 51°20.399 2°52.116 358.9 13.1 1 16.8
2011-07-25 07:13:12 51°20.421 2°52.115 357.8 13.1 359 17.1
2011-07-25 07:13:17 51°20.439 2°52.114 356.9 13.2 359 16.8
2011-07-25 07:13:22 51°20.457 2°52.113 356.1 13.2 358 16.3
2011-07-25 07:13:26 51°20.472 2°52.112 355.6 13.1 358 16.2
2011-07-25 07:13:32 51°20.493 2°52.111 355.2 12.9 358 16.7
2011-07-25 07:13:37 51°20.512 2°52.11 354.9 12.9 357 16.7
2011-07-25 07:13:42 51°20.53 2°52.108 354.3 13 357 16.6
2011-07-25 07:13:46 51°20.544 2°52.106 353.6 13 356 16.8
2011-07-25 07:13:52 51°20.566 2°52.104 353.8 13.1 356 15.9
2011-07-25 07:13:57 51°20.584 2°52.102 353.4 13 355 16
2011-07-25 07:14:02 51°20.602 2°52.1 353.2 13 357 16
2011-07-25 07:14:06 51°20.616 2°52.098 353.3 12.9 356 16
2011-07-25 07:14:12 51°20.637 2°52.097 353.7 12.7 358 15.6
2011-07-25 07:14:17 51°20.654 2°52.095 354.7 12.7 358 16.3
2011-07-25 07:14:22 51°20.672 2°52.095 355.1 12.8 358 15.8
2011-07-25 07:14:26 51°20.686 2°52.095 355.7 12.9 359 15.9
2011-07-25 07:14:32 51°20.708 2°52.095 356.9 13.1 -999 15.9
2011-07-25 07:14:37 51°20.726 2°52.095 357.2 13 -999 15.7
2011-07-25 07:14:42 51°20.745 2°52.096 358.2 13 2 16.8
2011-07-25 07:14:46 51°20.759 2°52.096 358.2 13 1 16.4
2011-07-25 07:14:52 51°20.781 2°52.097 358.4 13 1 15.6
2011-07-25 07:14:57 51°20.798 2°52.098 359 12.9 2 15.6
2011-07-25 07:15:02 51°20.816 2°52.099 359.1 12.9 2 16.5
2011-07-25 07:15:06 51°20.831 2°52.099 358.7 13.1 1 16.6
2011-07-25 07:15:12 51°20.852 2°52.099 358.3 13 1 16.8
2011-07-25 07:15:17 51°20.871 2°52.099 357.9 13.1 -999 17.1
2011-07-25 07:15:22 51°20.889 2°52.098 357.1 13.2 359 17
2011-07-25 07:15:26 51°20.903 2°52.098 356.2 13.2 359 16.8
2011-07-25 07:15:32 51°20.925 2°52.097 355.9 13.1 359 17.3
2011-07-25 07:15:37 51°20.943 2°52.096 355.6 13.2 358 17.3
2011-07-25 07:15:42 51°20.962 2°52.095 355 13.3 358 16.9
2011-07-25 07:15:46 51°20.976 2°52.094 354.6 13.1 358 18
2011-07-25 07:15:52 51°20.998 2°52.092 353.9 13 357 18.9
2011-07-25 07:15:57 51°21.016 2°52.09 354 13.1 357 18.6
2011-07-25 07:16:02 51°21.034 2°52.089 353.9 13 356 18.7
2011-07-25 07:16:06 51°21.048 2°52.087 353.6 13 357 18.8
2011-07-25 07:16:12 51°21.07 2°52.086 354.3 13.1 358 18.6
2011-07-25 07:16:17 51°21.088 2°52.085 354.5 12.9 358 19.3
2011-07-25 07:16:22 51°21.107 2°52.083 354.6 13 357 19.3
2011-07-25 07:16:26 51°21.121 2°52.083 354.9 13.1 358 18.6
2011-07-25 07:16:32 51°21.143 2°52.082 355.6 13.1 359 18.5
2011-07-25 07:16:37 51°21.161 2°52.081 355.7 13 358 19.1
2011-07-25 07:16:42 51°21.179 2°52.081 356.3 13.2 -999 19.3
2011-07-25 07:16:46 51°21.194 2°52.081 357 13.3 -999 19.5
2011-07-25 07:16:52 51°21.216 2°52.082 357.6 13.4 1 19.2
2011-07-25 07:16:57 51°21.234 2°52.083 358.6 13.3 2 19.7
2011-07-25 07:17:02 51°21.253 2°52.083 358.3 13.4 1 20.4
2011-07-25 07:17:06 51°21.268 2°52.084 358.6 13.4 2 20.5
2011-07-25 07:17:12 51°21.29 2°52.085 359 13.4 1 20.6
2011-07-25 07:17:17 51°21.309 2°52.086 359.2 13.6 2 20.6
2011-07-25 07:17:22 51°21.327 2°52.087 359.4 13.4 2 20.5
2011-07-25 07:17:26 51°21.342 2°52.088 359 13.3 1 21.5
2011-07-25 07:17:32 51°21.364 2°52.088 358.6 13.2 1 21.9
2011-07-25 07:17:37 51°21.382 2°52.088 358.5 13.1 1 21.1
2011-07-25 07:17:42 51°21.4 2°52.089 358.1 13.2 1 20.8
2011-07-25 07:17:46 51°21.415 2°52.089 357.5 13.1 -999 21.9
2011-07-25 07:17:52 51°21.437 2°52.09 357.7 13.2 2 22.2
2011-07-25 07:17:57 51°21.455 2°52.09 357.5 13.3 -999 22.4
2011-07-25 07:18:02 51°21.474 2°52.09 357.5 13.3 -999 22.6
2011-07-25 07:18:06 51°21.489 2°52.089 356.5 13.3 359 23.1
2011-07-25 07:18:12 51°21.511 2°52.088 355.8 13.3 358 22.9
2011-07-25 07:18:17 51°21.529 2°52.087 355 13.2 357 23.6
2011-07-25 07:18:22 51°21.548 2°52.086 354.5 13.2 358 23.8
2011-07-25 07:18:26 51°21.563 2°52.084 354.4 13.3 357 23.8
2011-07-25 07:18:32 51°21.585 2°52.082 353.9 13.3 357 24.3
2011-07-25 07:18:37 51°21.603 2°52.08 353.4 13.2 356 24.7
2011-07-25 07:18:42 51°21.621 2°52.078 352.9 13.2 356 24.6
2011-07-25 07:18:46 51°21.636 2°52.078 353.7 13.4 358 24
2011-07-25 07:18:52 51°21.658 2°52.076 354 13.3 357 24.3
2011-07-25 07:18:57 51°21.676 2°52.075 354.2 13.3 359 25.4
2011-07-25 07:19:02 51°21.695 2°52.074 355 13.3 358 24.9
2011-07-25 07:19:06 51°21.71 2°52.074 355.5 13.2 -999 25
2011-07-25 07:19:12 51°21.732 2°52.074 355.7 13.1 -999 25.3
2011-07-25 07:19:17 51°21.75 2°52.074 356.5 13.3 1 25.7
2011-07-25 07:19:22 51°21.769 2°52.074 356.8 13.3 -999 26
2011-07-25 07:19:26 51°21.784 2°52.074 357.2 13.3 -999 25.6
2011-07-25 07:19:32 51°21.806 2°52.074 356.9 13.4 -999 25.8
2011-07-25 07:19:37 51°21.825 2°52.075 357.2 13.6 1 26.1
2011-07-25 07:19:42 51°21.843 2°52.075 357.5 13.5 1 25.9
2011-07-25 07:19:46 51°21.858 2°52.076 357.9 13.5 1 25.7
2011-07-25 07:19:52 51°21.881 2°52.077 358.2 13.5 2 26.1
2011-07-25 07:19:57 51°21.9 2°52.078 358.6 13.7 2 25.8
2011-07-25 07:20:02 51°21.918 2°52.079 358.8 13.5 2 26
2011-07-25 07:20:06 51°21.933 2°52.08 358.9 13.5 2 26.4
2011-07-25 07:20:12 51°21.956 2°52.081 359 13.6 2 26
2011-07-25 07:20:17 51°21.974 2°52.081 358 13.4 -999 25.8
2011-07-25 07:20:22 51°21.992 2°52.082 357.6 13.2 1 25.7
2011-07-25 07:20:26 51°22.007 2°52.081 356.9 13.1 359 26.3
2011-07-25 07:20:32 51°22.029 2°52.081 356.2 13.2 -999 26.1
2011-07-25 07:20:37 51°22.047 2°52.08 355.8 13.4 359 26.4
2011-07-25 07:20:42 51°22.066 2°52.079 355.3 13.3 358 25.9
2011-07-25 07:20:46 51°22.081 2°52.078 354.2 13.2 357 26.1
2011-07-25 07:20:52 51°22.103 2°52.077 354.2 13.3 358 25.9
2011-07-25 07:20:57 51°22.122 2°52.075 353.6 13.5 357 25.7
2011-07-25 07:21:02 51°22.14 2°52.073 353.1 13.4 357 25.8
2011-07-25 07:21:06 51°22.155 2°52.073 353.7 13.6 358 25.6
2011-07-25 07:21:12 51°22.178 2°52.071 354 13.6 358 24.9
2011-07-25 07:21:17 51°22.196 2°52.07 354.4 13.4 358 24.7
2011-07-25 07:21:22 51°22.215 2°52.07 354.9 13.5 359 25.3
2011-07-25 07:21:26 51°22.23 2°52.07 355 13.5 -999 25.3
2011-07-25 07:21:32 51°22.252 2°52.069 355.5 13.4 -999 25.9
2011-07-25 07:21:37 51°22.271 2°52.069 356 13.5 359 25.5
2011-07-25 07:21:42 51°22.29 2°52.069 356.3 13.5 -999 26.1
2011-07-25 07:21:46 51°22.305 2°52.069 356.4 13.6 -999 25.1
2011-07-25 07:21:52 51°22.327 2°52.069 356.1 13.7 -999 24.6
2011-07-25 07:21:57 51°22.346 2°52.069 356.5 13.5 1 25
2011-07-25 07:22:02 51°22.364 2°52.069 356.5 13.4 -999 25.1
2011-07-25 07:22:07 51°22.383 2°52.069 356.2 13.6 -999 24.9
2011-07-25 07:22:12 51°22.402 2°52.069 356.4 13.6 -999 24.5
2011-07-25 07:22:17 51°22.42 2°52.07 356.3 13.5 1 24.5
2011-07-25 07:22:22 51°22.439 2°52.069 356.2 13.5 359 25.4
2011-07-25 07:22:26 51°22.454 2°52.069 356 13.5 -999 25.5
2011-07-25 07:22:32 51°22.476 2°52.07 356.2 13.5 1 24.8
2011-07-25 07:22:37 51°22.495 2°52.069 356.3 13.5 -999 24.1
2011-07-25 07:22:42 51°22.513 2°52.07 356.5 13.4 -999 24.4
2011-07-25 07:22:46 51°22.528 2°52.07 356.5 13.4 -999 25.5
2011-07-25 07:22:52 51°22.55 2°52.07 356.5 13.3 -999 25.5
2011-07-25 07:22:57 51°22.569 2°52.069 356.5 13.4 -999 24.5
2011-07-25 07:23:02 51°22.587 2°52.07 356.1 13.3 -999 25.3
2011-07-25 07:23:06 51°22.602 2°52.069 356.1 13.3 359 24.5
2011-07-25 07:23:12 51°22.625 2°52.069 356.6 13.4 -999 25.3
2011-07-25 07:23:17 51°22.643 2°52.069 356.9 13.5 -999 25.3
2011-07-25 07:23:22 51°22.662 2°52.07 357 13.5 -999 24.7
2011-07-25 07:23:26 51°22.677 2°52.07 357.4 13.5 1 24.8
2011-07-25 07:23:32 51°22.7 2°52.071 357.9 13.5 2 25.6
2011-07-25 07:23:37 51°22.719 2°52.072 358.6 13.8 1 25.6
2011-07-25 07:23:42 51°22.738 2°52.073 358.4 13.8 2 25.3
2011-07-25 07:23:46 51°22.753 2°52.073 358.2 13.7 1 24.8
2011-07-25 07:23:52 51°22.776 2°52.074 357.9 13.8 1 24.9
2011-07-25 07:23:57 51°22.794 2°52.075 358.3 13.6 2 24.5
2011-07-25 07:24:02 51°22.813 2°52.076 357.9 13.6 1 25.3
2011-07-25 07:24:06 51°22.829 2°52.077 358.3 13.7 2 24.7
2011-07-25 07:24:12 51°22.851 2°52.078 358.5 13.6 2 25.9
2011-07-25 07:24:17 51°22.87 2°52.079 358.5 13.6 1 25.3
2011-07-25 07:24:22 51°22.889 2°52.079 357.5 13.4 -999 26
2011-07-25 07:24:27 51°22.907 2°52.079 357.9 13.2 1 27
2011-07-25 07:24:32 51°22.926 2°52.079 357.1 13.2 -999 25.8
2011-07-25 07:24:37 51°22.944 2°52.078 356.2 13.2 358 25.6
2011-07-25 07:24:42 51°22.962 2°52.077 355.4 13.2 359 26.2
2011-07-25 07:24:46 51°22.977 2°52.076 354.4 13.2 357 25.3
2011-07-25 07:24:52 51°22.999 2°52.075 354.3 13.2 358 25.6
2011-07-25 07:24:57 51°23.017 2°52.073 353.8 13.2 356 25
2011-07-25 07:25:02 51°23.035 2°52.072 353.6 13.2 358 24.7
2011-07-25 07:25:06 51°23.05 2°52.071 353.9 13.2 357 25.4
2011-07-25 07:25:12 51°23.072 2°52.069 353.9 13.1 357 24.7
2011-07-25 07:25:17 51°23.091 2°52.068 354.4 13.1 358 26.2
2011-07-25 07:25:22 51°23.109 2°52.067 354.7 13.2 358 25.6
2011-07-25 07:25:26 51°23.124 2°52.066 354.7 13.3 359 24.9
2011-07-25 07:25:32 51°23.146 2°52.065 354.7 13.3 358 24.9
2011-07-25 07:25:37 51°23.164 2°52.064 354.7 13.4 358 24.8
2011-07-25 07:25:42 51°23.183 2°52.063 354.7 13.4 358 23.7
2011-07-25 07:25:46 51°23.198 2°52.062 354.7 13.4 358 22.2
2011-07-25 07:25:52 51°23.22 2°52.061 354.7 13.4 359 22.6
2011-07-25 07:25:57 51°23.238 2°52.06 354.8 13.2 359 22.9
2011-07-25 07:26:02 51°23.257 2°52.06 355.2 13.2 359 20.7
2011-07-25 07:26:06 51°23.272 2°52.059 355.7 13.3 359 22.2
2011-07-25 07:26:12 51°23.294 2°52.059 356.5 13.3 -999 22.6
2011-07-25 07:26:17 51°23.313 2°52.06 356.7 13.5 1 21.7
2011-07-25 07:26:22 51°23.331 2°52.059 356.9 13.4 359 21.1
2011-07-25 07:26:26 51°23.346 2°52.06 357.4 13.5 1 21.1
2011-07-25 07:26:32 51°23.369 2°52.06 357.3 13.6 -999 20.8
2011-07-25 07:26:37 51°23.387 2°52.061 357.9 13.5 1 19.9
2011-07-25 07:26:42 51°23.406 2°52.061 358.2 13.5 1 19.8
2011-07-25 07:26:46 51°23.421 2°52.062 358.6 13.4 1 19.1
2011-07-25 07:26:52 51°23.443 2°52.062 358.4 13.3 1 18
2011-07-25 07:26:57 51°23.462 2°52.062 358.6 13.4 1 18.7
2011-07-25 07:27:02 51°23.481 2°52.062 357.9 13.3 -999 19.7
2011-07-25 07:27:06 51°23.495 2°52.062 357.9 13.4 -999 19.7
2011-07-25 07:27:12 51°23.517 2°52.062 357.3 13.2 359 18.5
2011-07-25 07:27:17 51°23.536 2°52.061 357.2 13.4 358 16.9
2011-07-25 07:27:22 51°23.555 2°52.061 356 13.4 358 18.8
2011-07-25 07:27:26 51°23.569 2°52.06 356.7 13.3 358 16.6
2011-07-25 07:27:32 51°23.591 2°52.058 355.6 13.2 357 17.5
2011-07-25 07:27:37 51°23.61 2°52.057 355.4 13.3 357 18.4
2011-07-25 07:27:42 51°23.628 2°52.055 354.6 13.2 357 18.9
2011-07-25 07:27:46 51°23.643 2°52.053 354.4 13.3 357 18.7
2011-07-25 07:27:52 51°23.665 2°52.051 354.4 13.3 356 18.6
2011-07-25 07:27:57 51°23.683 2°52.049 353.6 13.2 356 18.4
2011-07-25 07:28:02 51°23.701 2°52.047 353.8 13.2 356 18.5
2011-07-25 07:28:06 51°23.716 2°52.045 353.2 13.2 355 18.7
2011-07-25 07:28:12 51°23.738 2°52.042 353.6 13.2 356 19.3
2011-07-25 07:28:17 51°23.756 2°52.04 353.1 13.3 355 19.1
2011-07-25 07:28:22 51°23.775 2°52.038 353.4 13.2 356 19
2011-07-25 07:28:26 51°23.789 2°52.035 353.6 13.3 356 19.1
2011-07-25 07:28:32 51°23.811 2°52.034 354.5 13.3 357 19.1
2011-07-25 07:28:37 51°23.83 2°52.033 355 13.3 358 19.7
2011-07-25 07:28:42 51°23.848 2°52.032 355.5 13.2 358 19.5
2011-07-25 07:28:47 51°23.866 2°52.031 356.5 13.3 359 16.9
2011-07-25 07:28:52 51°23.885 2°52.03 356.5 13.3 358 18.4
2011-07-25 07:28:57 51°23.903 2°52.03 356.4 13.3 359 19.7
2011-07-25 07:29:02 51°23.922 2°52.029 356.8 13.2 358 20.3
2011-07-25 07:29:06 51°23.936 2°52.028 356.8 13.2 359 20.6
2011-07-25 07:29:12 51°23.958 2°52.027 356.5 13.2 358 18.4
2011-07-25 07:29:17 51°23.976 2°52.027 356.2 12.9 358 18.4
2011-07-25 07:29:22 51°23.994 2°52.026 356.9 13 359 18.2
2011-07-25 07:29:26 51°24.009 2°52.026 357.3 13.2 -999 18.8
2011-07-25 07:29:32 51°24.03 2°52.026 357.3 13.1 359 19.3
2011-07-25 07:29:37 51°24.048 2°52.025 357.2 13 359 20.8
2011-07-25 07:29:42 51°24.066 2°52.025 357.5 12.8 -999 21.1
2011-07-25 07:29:46 51°24.081 2°52.025 357.2 12.9 359 20.6
2011-07-25 07:29:52 51°24.102 2°52.024 356.6 12.9 358 21.3
2011-07-25 07:29:57 51°24.12 2°52.022 356.3 13 357 20.9
2011-07-25 07:30:02 51°24.138 2°52.021 355.9 13.1 358 19.8
2011-07-25 07:30:06 51°24.152 2°52.02 355.5 13 357 20.4
2011-07-25 07:30:12 51°24.174 2°52.018 355.2 13.1 357 21.1
2011-07-25 07:30:17 51°24.192 2°52.015 354.5 13.3 355 21.2
2011-07-25 07:30:22 51°24.211 2°52.014 353.5 13.1 356 21.3
2011-07-25 07:30:26 51°24.225 2°52.012 353.1 13.1 355 19.5
2011-07-25 07:30:32 51°24.247 2°52.009 352.6 13.1 355 19.4
2011-07-25 07:30:37 51°24.265 2°52.006 352.2 13 355 20.1
2011-07-25 07:30:42 51°24.283 2°52.003 352.7 12.9 355 19.9
2011-07-25 07:30:46 51°24.297 2°52.002 352.8 12.9 356 20.6
2011-07-25 07:30:52 51°24.319 2°51.999 353.3 13 356 21.1
2011-07-25 07:30:57 51°24.336 2°51.998 354.1 12.9 356 21
2011-07-25 07:31:02 51°24.354 2°51.996 354 12.6 357 22.4
2011-07-25 07:31:06 51°24.368 2°51.995 354.5 12.9 358 21.9
2011-07-25 07:31:12 51°24.39 2°51.993 355.1 12.9 356 21.4
2011-07-25 07:31:17 51°24.407 2°51.991 354.9 13 357 22.2
2011-07-25 07:31:22 51°24.425 2°51.99 354.8 13 356 21.5
2011-07-25 07:31:26 51°24.44 2°51.989 354.9 13.1 357 21.4
2011-07-25 07:31:32 51°24.461 2°51.986 354.2 13.1 356 22.3
2011-07-25 07:31:37 51°24.479 2°51.985 354.3 13 357 19
2011-07-25 07:31:42 51°24.497 2°51.984 355 13.1 357 21.5
2011-07-25 07:31:46 51°24.512 2°51.983 355.3 13.2 358 22.5
2011-07-25 07:31:52 51°24.534 2°51.982 355.8 13.3 358 20.6
2011-07-25 07:31:57 51°24.553 2°51.982 356.2 13.5 359 22.2
2011-07-25 07:32:02 51°24.572 2°51.981 356.9 13.5 358 22.4
2011-07-25 07:32:06 51°24.587 2°51.982 357.7 13.6 1 22.9
2011-07-25 07:32:12 51°24.609 2°51.981 358.1 13.5 -999 22.7
2011-07-25 07:32:17 51°24.628 2°51.981 358 13.5 -999 22.9
2011-07-25 07:32:22 51°24.647 2°51.981 357.9 13.6 -999 23.2
2011-07-25 07:32:26 51°24.662 2°51.981 358 13.6 -999 23.8
2011-07-25 07:32:32 51°24.684 2°51.98 357.9 13.6 359 22.9
2011-07-25 07:32:37 51°24.702 2°51.98 357.2 13.3 358 22.9
2011-07-25 07:32:42 51°24.72 2°51.979 356.9 13 359 24.4
2011-07-25 07:32:46 51°24.734 2°51.978 356.5 12.9 358 24.1
2011-07-25 07:32:52 51°24.756 2°51.977 355.7 13 358 23.6
2011-07-25 07:32:57 51°24.774 2°51.975 355.3 13.2 358 23.9
2011-07-25 07:33:02 51°24.792 2°51.975 355.6 13.3 358 23.3
2011-07-25 07:33:06 51°24.807 2°51.975 356.7 13.3 359 23.3
2011-07-25 07:33:12 51°24.83 2°51.974 357.2 13.5 359 23.5
2011-07-25 07:33:17 51°24.848 2°51.974 357.2 13.2 1 22.9
2011-07-25 07:33:22 51°24.866 2°51.974 358 13.4 -999 23.1
2011-07-25 07:33:26 51°24.881 2°51.974 357.9 13.3 -999 23.8
2011-07-25 07:33:32 51°24.904 2°51.975 358.4 13.4 1 24.2
2011-07-25 07:33:37 51°24.922 2°51.975 358.6 13.3 1 24.5
2011-07-25 07:33:42 51°24.941 2°51.976 359.1 13.4 1 24.7
2011-07-25 07:33:46 51°24.956 2°51.977 359.4 13.4 3 24.8
2011-07-25 07:33:52 51°24.978 2°51.979 0.1 13.5 3 25.1
2011-07-25 07:33:57 51°24.997 2°51.981 1.5 13.4 3 25.3
2011-07-25 07:34:02 51°25.016 2°51.982 2.1 13.4 2 24.4
2011-07-25 07:34:06 51°25.031 2°51.984 2.1 13.6 5 24
2011-07-25 07:34:12 51°25.053 2°51.987 2 13.5 3 24.3
2011-07-25 07:34:17 51°25.072 2°51.989 2.8 13.6 5 23.8
2011-07-25 07:34:22 51°25.09 2°51.991 2.5 13.4 4 23.9
2011-07-25 07:34:26 51°25.105 2°51.993 2.3 13.1 4 24.9
2011-07-25 07:34:32 51°25.127 2°51.995 2.1 13.1 4 25.1
2011-07-25 07:34:37 51°25.145 2°51.997 2.4 13.4 4 25.2
2011-07-25 07:34:42 51°25.164 2°51.999 2.3 13.5 3 25.2
2011-07-25 07:34:46 51°25.179 2°52.001 1.9 13.4 3 25.7
2011-07-25 07:34:52 51°25.201 2°52.002 1.4 13.3 3 26.6
2011-07-25 07:34:57 51°25.22 2°52.003 0.4 13.5 1 26.6
2011-07-25 07:35:02 51°25.238 2°52.003 359.4 13.5 -999 25.3
2011-07-25 07:35:06 51°25.253 2°52.003 358.6 13.4 -999 26
2011-07-25 07:35:12 51°25.275 2°52.003 358.4 13.4 -999 26.3
2011-07-25 07:35:17 51°25.294 2°52.003 357.9 13.5 -999 27.1
2011-07-25 07:35:22 51°25.313 2°52.003 358.5 13.5 -999 26.8
2011-07-25 07:35:26 51°25.327 2°52.002 358.1 13.1 -999 26.7
2011-07-25 07:35:32 51°25.349 2°52.003 358.4 13.2 1 28
2011-07-25 07:35:37 51°25.367 2°52.004 358.7 13.3 1 28.2
2011-07-25 07:35:42 51°25.386 2°52.004 359.1 13.4 2 28.8
2011-07-25 07:35:46 51°25.401 2°52.005 359.6 13.5 1 28.5
2011-07-25 07:35:52 51°25.423 2°52.006 0.4 13.6 3 28.5
2011-07-25 07:35:57 51°25.442 2°52.007 0.9 13.3 2 27.8
2011-07-25 07:36:02 51°25.46 2°52.01 1.6 13.6 4 27.6
2011-07-25 07:36:07 51°25.478 2°52.012 2.3 13.3 4 28.3
2011-07-25 07:36:11 51°25.493 2°52.014 2.4 13.3 4 29.7
2011-07-25 07:36:17 51°25.515 2°52.016 2.3 13.2 4 30.4
2011-07-25 07:36:22 51°25.534 2°52.018 2.5 13.2 4 31.3
2011-07-25 07:36:27 51°25.553 2°52.019 2.2 13.4 4 30.7
2011-07-25 07:36:32 51°25.571 2°52.021 1.9 13.4 3 29.5
2011-07-25 07:36:37 51°25.589 2°52.023 2.4 13.3 3 30
2011-07-25 07:36:42 51°25.608 2°52.025 2.5 13.4 4 30.1
2011-07-25 07:36:46 51°25.623 2°52.026 1.9 13.5 3 29.7
2011-07-25 07:36:52 51°25.645 2°52.029 2.2 13.4 3 30
2011-07-25 07:36:57 51°25.664 2°52.031 2.3 13.4 3 30.3
2011-07-25 07:37:02 51°25.682 2°52.032 2.3 13.4 4 30.4
2011-07-25 07:37:06 51°25.697 2°52.033 0.9 13.5 2 30
2011-07-25 07:37:12 51°25.72 2°52.034 0.8 13.6 2 30.2
2011-07-25 07:37:17 51°25.739 2°52.035 0.2 13.6 1 30.2
2011-07-25 07:37:22 51°25.758 2°52.036 359.9 13.4 2 30.3
2011-07-25 07:37:27 51°25.776 2°52.036 359.9 13.4 1 28.9
2011-07-25 07:37:32 51°25.795 2°52.037 359.3 13.4 1 28.6
2011-07-25 07:37:37 51°25.814 2°52.037 359.3 13.5 -999 29.2
2011-07-25 07:37:42 51°25.832 2°52.036 358.5 13.3 359 28.8
2011-07-25 07:37:46 51°25.847 2°52.037 358.1 13.5 1 29
2011-07-25 07:37:52 51°25.87 2°52.036 357.9 13.5 359 27.9
2011-07-25 07:37:57 51°25.888 2°52.036 357.8 13.2 -999 27.6
2011-07-25 07:38:02 51°25.907 2°52.035 357.2 13.3 359 27.8
2011-07-25 07:38:06 51°25.922 2°52.035 357.9 13.2 1 28.2
2011-07-25 07:38:12 51°25.943 2°52.035 358.3 13.2 359 28.7
2011-07-25 07:38:17 51°25.962 2°52.036 358.5 13.1 1 29
2011-07-25 07:38:22 51°25.98 2°52.036 359 13.2 1 28.4
2011-07-25 07:38:26 51°25.995 2°52.036 358.9 13.4 1 27.8
2011-07-25 07:38:32 51°26.018 2°52.037 359.7 13.6 2 27.6
2011-07-25 07:38:37 51°26.037 2°52.038 0.1 13.6 2 28.4
2011-07-25 07:38:42 51°26.056 2°52.04 0.5 13.7 3 28
2011-07-25 07:38:46 51°26.071 2°52.041 1 13.6 2 27.9
2011-07-25 07:38:52 51°26.093 2°52.043 1.1 13.7 3 28.5
2011-07-25 07:38:57 51°26.112 2°52.043 1.4 13.8 1 27.9
2011-07-25 07:39:02 51°26.131 2°52.045 0.7 13.8 2 27.8
2011-07-25 07:39:06 51°26.146 2°52.046 0.6 13.7 3 28.2
2011-07-25 07:39:12 51°26.169 2°52.047 0.6 13.7 2 27.6
2011-07-25 07:39:17 51°26.187 2°52.047 0.2 13.3 1 28
2011-07-25 07:39:22 51°26.206 2°52.049 0.4 13.4 3 28.2
2011-07-25 07:39:26 51°26.221 2°52.049 0.1 13.6 1 27
2011-07-25 07:39:32 51°26.243 2°52.05 359.8 13.4 1 27.3
2011-07-25 07:39:37 51°26.261 2°52.051 359.4 13 1 27.6
2011-07-25 07:39:42 51°26.279 2°52.051 359.4 12.9 1 28
2011-07-25 07:39:46 51°26.294 2°52.051 359.3 13 1 28.2
2011-07-25 07:39:52 51°26.316 2°52.052 359.4 13.1 1 28.5
2011-07-25 07:39:57 51°26.334 2°52.052 359.1 13.2 1 29
2011-07-25 07:40:02 51°26.352 2°52.053 359.6 13.2 2 28.8
2011-07-25 07:40:06 51°26.367 2°52.054 359.8 13.3 1 28.4
2011-07-25 07:40:12 51°26.39 2°52.055 0.5 13.6 2 27.4
2011-07-25 07:40:17 51°26.408 2°52.056 1 13.4 1 27.5
2011-07-25 07:40:22 51°26.427 2°52.058 1.5 13.5 4 28.3
2011-07-25 07:40:26 51°26.442 2°52.059 1.5 13.3 3 27.3
2011-07-25 07:40:32 51°26.463 2°52.06 1.5 13 2 28.4
2011-07-25 07:40:37 51°26.481 2°52.063 1.9 12.8 5 28.4
2011-07-25 07:40:42 51°26.499 2°52.063 2.2 12.4 2 28.2
2011-07-25 07:40:46 51°26.511 2°52.065 1.5 11.8 4 27.5
2011-07-25 07:40:52 51°26.529 2°52.067 2.1 10.9 3 27.1
2011-07-25 07:40:57 51°26.542 2°52.069 1.1 10 4 27.3
2011-07-25 07:41:02 51°26.555 2°52.071 1.9 9.4 5 27.2
2011-07-25 07:41:06 51°26.565 2°52.072 2.1 8.9 4 27.7
2011-07-25 07:41:12 51°26.578 2°52.074 2.3 8.4 6 27.6
2011-07-25 07:41:17 51°26.589 2°52.076 2.4 7.5 6 27
2011-07-25 07:41:22 51°26.599 2°52.078 2.9 7.5 7 27.5
2011-07-25 07:41:26 51°26.606 2°52.08 3 7.2 7 28.4
2011-07-25 07:41:32 51°26.617 2°52.082 2.7 6.7 7 27.9
2011-07-25 07:41:37 51°26.626 2°52.082 1.4 6.4 4 28.2
2011-07-25 07:41:42 51°26.634 2°52.083 357.2 6.1 1 28.5
2011-07-25 07:41:46 51°26.64 2°52.083 352.4 5.6 358 29.4
2011-07-25 07:41:52 51°26.649 2°52.082 349.1 5.2 356 29.3
2011-07-25 07:41:57 51°26.656 2°52.08 344.1 5 352 29.6
2011-07-25 07:42:02 51°26.663 2°52.078 338.3 4.8 349 30.1
2011-07-25 07:42:06 51°26.668 2°52.076 333.5 4.8 348 29.8
2011-07-25 07:42:12 51°26.675 2°52.072 328.4 4.5 341 29.6
2011-07-25 07:42:17 51°26.68 2°52.068 322.8 4.4 334 29.6
2011-07-25 07:42:22 51°26.686 2°52.064 317.8 4.4 331 28.9
2011-07-25 07:42:26 51°26.689 2°52.059 311.7 4.2 326 29.7
2011-07-25 07:42:32 51°26.695 2°52.053 306.4 4.2 324 28.9
2011-07-25 07:42:37 51°26.698 2°52.047 301 4 316 28.2
2011-07-25 07:42:42 51°26.701 2°52.04 295.2 3.7 310 29
2011-07-25 07:42:46 51°26.704 2°52.035 290 3.7 309 28.9
2011-07-25 07:42:52 51°26.707 2°52.027 286 3.7 302 28.4
2011-07-25 07:42:57 51°26.709 2°52.02 280.4 3.7 297 28.1
2011-07-25 07:43:02 51°26.711 2°52.012 275.9 3.6 288 28.7
2011-07-25 07:43:06 51°26.713 2°52.006 273.1 3.7 294 28
2011-07-25 07:43:12 51°26.714 2°51.997 270.8 3.4 279 28.8
2011-07-25 07:43:17 51°26.716 2°51.99 268.1 3.6 292 28.6
2011-07-25 07:43:22 51°26.717 2°51.983 265.9 3.1 281 28.3
2011-07-25 07:43:26 51°26.718 2°51.978 264.8 2.9 286 29
2011-07-25 07:43:32 51°26.719 2°51.973 263.9 2.3 292 28.8
2011-07-25 07:43:37 51°26.72 2°51.97 261.9 1.7 300 28.4
2011-07-25 07:43:42 51°26.721 2°51.967 258.6 1.3 309 28.1
2011-07-25 07:43:46 51°26.722 2°51.967 254.9 0.8 327 28.4
2011-07-25 07:43:52 51°26.723 2°51.966 252.5 0.9 344 28.6
2011-07-25 07:43:57 51°26.725 2°51.966 248.5 1.1 6 27.8
2011-07-25 07:44:02 51°26.727 2°51.967 245.4 1.2 17 27.9
2011-07-25 07:44:06 51°26.728 2°51.968 244 1.2 26 28.7
2011-07-25 07:44:12 51°26.73 2°51.969 242.8 1.4 15 28.1
2011-07-25 07:44:17 51°26.732 2°51.971 242.2 1.3 32 28.3
2011-07-25 07:44:22 51°26.734 2°51.971 241.3 1.5 18 28.4
2011-07-25 07:44:26 51°26.735 2°51.973 240.9 1.3 28 27.9
2011-07-25 07:44:32 51°26.737 2°51.974 240.4 1.3 21 28
2011-07-25 07:44:37 51°26.739 2°51.975 240.3 1.3 29 28.1
2011-07-25 07:44:42 51°26.741 2°51.977 240.5 1.5 23 28.1
2011-07-25 07:44:46 51°26.742 2°51.978 241.1 1.4 30 28.2
2011-07-25 07:44:52 51°26.744 2°51.98 241.3 1.4 27 28.6
2011-07-25 07:44:57 51°26.746 2°51.981 241.7 1.4 29 28.1
2011-07-25 07:45:02 51°26.748 2°51.982 242.5 1.4 25 28.2
2011-07-25 07:45:06 51°26.749 2°51.983 242.9 1.4 24 28.3
2011-07-25 07:45:12 51°26.751 2°51.985 244 1.5 21 27.9
2011-07-25 07:45:17 51°26.753 2°51.986 244.9 1.4 24 27.8
2011-07-25 07:45:22 51°26.754 2°51.987 246 1.3 33 28.4
2011-07-25 07:45:26 51°26.757 2°51.988 246.8 1.8 13 27.6
2011-07-25 07:45:32 51°26.758 2°51.99 247.9 1.2 33 27.6
2011-07-25 07:45:37 51°26.76 2°51.991 249 1.3 31 28.1
2011-07-25 07:45:42 51°26.761 2°51.993 249.4 1.3 27 28.2
2011-07-25 07:45:46 51°26.763 2°51.993 250.1 1.4 26 28.1
2011-07-25 07:45:52 51°26.765 2°51.995 250.4 1.4 20 27.7
2011-07-25 07:45:57 51°26.766 2°51.996 250.8 1.1 35 28.5
2011-07-25 07:46:02 51°26.768 2°51.998 250.7 1.5 19 27.9
2011-07-25 07:46:06 51°26.769 2°51.999 250.7 1.1 31 27.9
2011-07-25 07:46:12 51°26.771 2°52 250.1 1.3 22 28
2011-07-25 07:46:17 51°26.772 2°52.001 249.8 1 32 28.3
2011-07-25 07:46:22 51°26.774 2°52.002 248.8 1.2 15 27.7
2011-07-25 07:46:26 51°26.774 2°52.003 246.8 0.7 47 28.4
2011-07-25 07:46:32 51°26.775 2°52.003 245.2 0.9 15 28
2011-07-25 07:46:37 51°26.775 2°52.005 241.7 0.5 69 28.7
2011-07-25 07:46:42 51°26.776 2°52.004 238.2 0.6 -999 27.9
2011-07-25 07:46:46 51°26.776 2°52.005 233 0.3 99 28.1
2011-07-25 07:46:52 51°26.776 2°52.005 229.8 0.4 334 28
2011-07-25 07:46:57 51°26.776 2°52.005 226.5 0.3 124 28.2
2011-07-25 07:47:02 51°26.776 2°52.005 224 0.1 191 28.7
2011-07-25 07:47:06 51°26.776 2°52.004 220.9 0.4 250 27.8
2011-07-25 07:47:12 51°26.775 2°52.004 218.7 0.3 201 27.8
2011-07-25 07:47:17 51°26.775 2°52.004 217.4 0.3 235 28.4
2011-07-25 07:47:22 51°26.774 2°52.004 216.4 0.3 164 28.5
2011-07-25 07:47:27 51°26.774 2°52.003 214.6 0.4 242 28.2
2011-07-25 07:47:32 51°26.774 2°52.003 214 0.3 192 28.2
2011-07-25 07:47:37 51°26.773 2°52.003 213.2 0.3 218 28
2011-07-25 07:47:42 51°26.773 2°52.003 213 0.3 168 28.2
2011-07-25 07:47:46 51°26.773 2°52.002 212.5 0.3 216 28.4
2011-07-25 07:47:52 51°26.772 2°52.002 212.3 0.3 209 27.9
2011-07-25 07:47:57 51°26.772 2°52.002 212.3 0.3 176 28.3
2011-07-25 07:48:02 51°26.772 2°52.002 212.2 0.3 269 27.8
2011-07-25 07:48:06 51°26.771 2°52.002 212.3 0.4 154 28.3
2011-07-25 07:48:12 51°26.771 2°52.001 212.1 0.4 260 27.8
2011-07-25 07:48:17 51°26.771 2°52.002 212.1 0.3 153 28.1
2011-07-25 07:48:22 51°26.771 2°52.001 212 0.4 292 27.9
2011-07-25 07:48:26 51°26.771 2°52.002 212.4 0.5 125 28.5
2011-07-25 07:48:32 51°26.771 2°52.001 212.4 0.6 287 27.7
2011-07-25 07:48:37 51°26.77 2°52.001 212 0.4 135 28.1
2011-07-25 07:48:42 51°26.771 2°52.001 213 -999 328 28.3
2011-07-25 07:48:46 51°26.771 2°52.002 212.2 0.2 91 28.2
2011-07-25 07:48:52 51°26.771 2°52.001 211.8 0.2 333 27.9
2011-07-25 07:48:57 51°26.771 2°52.002 211.6 0.3 102 28.4
2011-07-25 07:49:02 51°26.771 2°52.002 211.6 0.2 344 28
2011-07-25 07:49:06 51°26.771 2°52.002 211.4 0.3 77 28.1
2011-07-25 07:49:12 51°26.772 2°52.003 211.3 0.2 38 28.2
2011-07-25 07:49:17 51°26.771 2°52.003 210.9 0.2 75 27.6
2011-07-25 07:49:22 51°26.772 2°52.004 211 0.2 70 28.1
2011-07-25 07:49:26 51°26.772 2°52.004 211.1 0.3 54 27.9
2011-07-25 07:49:32 51°26.772 2°52.004 210.7 0.3 23 27.9
2011-07-25 07:49:37 51°26.772 2°52.005 211 0.3 58 28.5
2011-07-25 07:49:42 51°26.773 2°52.005 210.3 0.3 355 28
2011-07-25 07:49:46 51°26.773 2°52.006 210.6 0.4 72 28.2
2011-07-25 07:49:52 51°26.773 2°52.006 210.9 0.3 62 28.5
2011-07-25 07:49:57 51°26.773 2°52.006 210.5 0.3 20 28
2011-07-25 07:50:02 51°26.773 2°52.007 211 0.4 82 28.8
2011-07-25 07:50:06 51°26.773 2°52.007 211.2 0.2 351 28.2
2011-07-25 07:50:12 51°26.773 2°52.007 211.3 0.2 86 28.2
2011-07-25 07:50:17 51°26.774 2°52.007 211.3 0.2 322 27.9
2011-07-25 07:50:22 51°26.774 2°52.007 212.3 0.2 76 28.4
2011-07-25 07:50:26 51°26.773 2°52.007 212.7 0.1 153 28.2
2011-07-25 07:50:32 51°26.774 2°52.007 212.9 0.1 329 27.9
2011-07-25 07:50:37 51°26.773 2°52.008 213.4 0.3 137 28.7
2011-07-25 07:50:42 51°26.774 2°52.007 213.6 0.3 306 28.2
2011-07-25 07:50:46 51°26.773 2°52.008 213.5 0.3 140 28.5
2011-07-25 07:50:52 51°26.774 2°52.007 214.1 0.2 299 28
2011-07-25 07:50:57 51°26.773 2°52.007 214.2 0.3 124 28.4
2011-07-25 07:51:02 51°26.773 2°52.007 214.7 0.2 291 28.5
2011-07-25 07:51:07 51°26.773 2°52.007 214.5 0.2 206 28.1
2011-07-25 07:51:12 51°26.773 2°52.006 214.4 0.2 264 27.8
2011-07-25 07:51:17 51°26.773 2°52.007 215.1 0.2 150 28.5
2011-07-25 07:51:22 51°26.773 2°52.006 215 0.3 273 28.2
2011-07-25 07:51:26 51°26.773 2°52.006 215.1 0.2 168 28.2
2011-07-25 07:51:32 51°26.773 2°52.005 215 0.4 288 27.9
2011-07-25 07:51:37 51°26.772 2°52.006 215.7 0.3 137 28.4
2011-07-25 07:51:42 51°26.773 2°52.005 215.6 0.4 277 28
2011-07-25 07:51:46 51°26.772 2°52.005 215.2 0.3 152 28.3
2011-07-25 07:51:52 51°26.772 2°52.004 215.3 0.4 267 28
2011-07-25 07:51:57 51°26.772 2°52.005 215.2 0.2 186 27.8
2011-07-25 07:52:02 51°26.772 2°52.004 215.5 0.1 292 28.3
2011-07-25 07:52:06 51°26.772 2°52.004 215.6 -999 1 28.1
2011-07-25 07:52:12 51°26.772 2°52.004 214.9 0.2 295 27.9
2011-07-25 07:52:17 51°26.772 2°52.004 215.2 0.2 136 27.9
2011-07-25 07:52:22 51°26.772 2°52.004 214.4 0.1 233 28
2011-07-25 07:52:27 51°26.772 2°52.004 214.7 0.1 95 28.1
2011-07-25 07:52:32 51°26.772 2°52.004 214.3 0.3 298 27.7
2011-07-25 07:52:37 51°26.772 2°52.004 214.3 0.3 127 28.1
2011-07-25 07:52:42 51°26.772 2°52.004 214.4 0.2 278 27.9
2011-07-25 07:52:46 51°26.772 2°52.004 214.6 0.1 57 27.9
2011-07-25 07:52:52 51°26.773 2°52.004 214.7 0.2 318 28.1
2011-07-25 07:52:57 51°26.773 2°52.004 214.9 0.2 85 28.3
2011-07-25 07:53:02 51°26.773 2°52.004 215 0.3 316 28.1
2011-07-25 07:53:06 51°26.773 2°52.004 214.7 0.1 358 27.8
2011-07-25 07:53:12 51°26.773 2°52.004 215.6 0.2 83 28.2
2011-07-25 07:53:17 51°26.773 2°52.004 215.3 0.1 5 28.1
2011-07-25 07:53:22 51°26.773 2°52.004 215.1 0.2 120 28.1
2011-07-25 07:53:26 51°26.773 2°52.003 214.9 0.3 316 28.3
2011-07-25 07:53:32 51°26.773 2°52.004 214.8 0.2 111 27.8
2011-07-25 07:53:37 51°26.773 2°52.005 214.9 0.3 86 28.6
2011-07-25 07:53:42 51°26.773 2°52.004 214.5 0.1 232 28.3
2011-07-25 07:53:46 51°26.773 2°52.004 213.7 0.2 288 27.4
2011-07-25 07:53:52 51°26.773 2°52.005 213.4 -999 198 28.2
2011-07-25 07:53:57 51°26.773 2°52.005 214.9 0.2 94 28.4
2011-07-25 07:54:02 51°26.773 2°52.004 212.9 0.3 292 27.8
2011-07-25 07:54:06 51°26.773 2°52.005 213.8 0.3 121 28.6
2011-07-25 07:54:12 51°26.773 2°52.004 213.5 0.4 293 27.6
2011-07-25 07:54:17 51°26.773 2°52.006 213.8 0.6 114 28.7
2011-07-25 07:54:22 51°26.773 2°52.005 213.5 0.4 308 28.4
2011-07-25 07:54:26 51°26.773 2°52.006 213.1 0.3 115 28.2
2011-07-25 07:54:32 51°26.773 2°52.005 212.7 0.2 298 28.4
2011-07-25 07:54:37 51°26.773 2°52.005 212.5 0.1 13 27.8
2011-07-25 07:54:42 51°26.773 2°52.005 212.7 0.2 148 28.3